Terminal Aerodrome Forecast
Issued by NWS

Current Version | Previous Version | Graphics & Text | Print | Product List | Glossary On
Versions: 1 2 3 4 5 6 7 8 9 10 11 12 13 14 15 16 17 18 19 20 21
000
FTUS41 KRLX 302338
TAFCKB
TAF
KCKB 302338Z 0100/0124 21007KT 6SM SHRA VCTS BKN040CB
     FM010300 VRB03KT P6SM BKN025
     FM010500 22004KT 5SM BR BKN020
     FM010800 22004KT 3SM BR BKN025
     FM011200 22004KT 6SM BR BKN020
     FM011600 25007KT P6SM SCT025=

USA.gov is the U.S. government's official web portal to all federal, state and local government web resources and services.